Lincoln, Massachusetts
Current Conditions -  °F | °C
As of 12:56 AM on Sunday 21 Dec 2014 (Local Time) from KBED Reporting Station
Overcast Overcast  
Wind Chill: 26°   Ceiling: 6000
Heat Index: 31°   Visibility: 10mi
Dew Point: 25°   Wind: 5mph
Humidity: 79%   Direction: 330°NNW
Pressure: 30.27"   Gusts: NA
Location:  42.43°N, 71.3°W
Report Text: KBED 210556Z 33004KT 10SM SCT030 OVC060 M01/M04 A3027 RMK AO2 SLP267 T10061039 10000 21006 58003
Loading
Personal Weather Stations






























Interactive Weather Map New forecast layout! Learn more

10-Day Weather Forecast

Advertisements
Track Severe Weather on mobile